Monroe, Mississippi
Current Conditions -  °F | °C
As of 7:53 AM on Wednesday 22 Oct 2014 (Local Time) from KMCB Reporting Station
Clear Clear  
Wind Chill: 59°   Ceiling: Unl
Heat Index: 59°   Visibility: 10mi
Dew Point: 51°   Wind: 6mph
Humidity: 75%   Direction: 10°N
Pressure: 30.11"   Gusts: NA
Location:  31.4031°N, 90.8369°W
Report Text: KMCB 221253Z AUTO 01005KT 10SM CLR 15/11 A3011 RMK AO2 SLP192 T01500106
Loading
Personal Weather Stations






























Interactive Weather Map
Tropical Storm Tracking
New forecast layout! Learn more

10-Day Weather Forecast

Advertisements
Track Severe Weather on mobile